sensor_id;sensor_type;location;lat;lon;timestamp;P1;durP1;ratioP1;P2;durP2;ratioP2
67804;SDS011;54603;45.638;11.714;2022-09-06T00:00:50;3.50;;;3.20;;
67804;SDS011;54603;45.638;11.714;2022-09-06T00:03:16;3.30;;;3.00;;
67804;SDS011;54603;45.638;11.714;2022-09-06T00:05:41;4.10;;;3.50;;
67804;SDS011;54603;45.638;11.714;2022-09-06T00:08:08;3.50;;;3.10;;
67804;SDS011;54603;45.638;11.714;2022-09-06T00:10:34;3.50;;;3.20;;
67804;SDS011;54603;45.638;11.714;2022-09-06T00:13:05;3.50;;;3.10;;
67804;SDS011;54603;45.638;11.714;2022-09-06T00:15:31;3.40;;;3.10;;
67804;SDS011;54603;45.638;11.714;2022-09-06T00:17:58;3.70;;;3.30;;
67804;SDS011;54603;45.638;11.714;2022-09-06T00:20:25;3.30;;;3.00;;
67804;SDS011;54603;45.638;11.714;2022-09-06T00:22:54;3.60;;;3.30;;
67804;SDS011;54603;45.638;11.714;2022-09-06T00:25:21;6.00;;;3.60;;
67804;SDS011;54603;45.638;11.714;2022-09-06T00:27:46;3.70;;;3.30;;
67804;SDS011;54603;45.638;11.714;2022-09-06T00:30:12;4.20;;;3.40;;
67804;SDS011;54603;45.638;11.714;2022-09-06T00:32:38;5.40;;;3.50;;
67804;SDS011;54603;45.638;11.714;2022-09-06T00:35:04;3.80;;;3.30;;
67804;SDS011;54603;45.638;11.714;2022-09-06T00:37:30;4.00;;;3.50;;
67804;SDS011;54603;45.638;11.714;2022-09-06T00:39:55;4.30;;;3.40;;
67804;SDS011;54603;45.638;11.714;2022-09-06T00:42:21;5.10;;;3.90;;
67804;SDS011;54603;45.638;11.714;2022-09-06T00:44:48;3.90;;;3.60;;
67804;SDS011;54603;45.638;11.714;2022-09-06T00:47:14;3.80;;;3.50;;
67804;SDS011;54603;45.638;11.714;2022-09-06T00:49:41;6.80;;;3.70;;
67804;SDS011;54603;45.638;11.714;2022-09-06T00:52:09;4.80;;;3.90;;
67804;SDS011;54603;45.638;11.714;2022-09-06T00:54:38;3.90;;;3.50;;
67804;SDS011;54603;45.638;11.714;2022-09-06T00:57:04;5.00;;;3.80;;
67804;SDS011;54603;45.638;11.714;2022-09-06T00:59:30;4.90;;;3.90;;
67804;SDS011;54603;45.638;11.714;2022-09-06T01:01:57;4.10;;;3.70;;
67804;SDS011;54603;45.638;11.714;2022-09-06T01:04:23;4.00;;;3.60;;
67804;SDS011;54603;45.638;11.714;2022-09-06T01:06:54;6.00;;;3.30;;
67804;SDS011;54603;45.638;11.714;2022-09-06T01:09:41;4.90;;;3.60;;
67804;SDS011;54603;45.638;11.714;2022-09-06T01:15:24;4.30;;;3.90;;
67804;SDS011;54603;45.638;11.714;2022-09-06T01:18:30;5.10;;;3.70;;
67804;SDS011;54603;45.638;11.714;2022-09-06T01:28:40;4.10;;;3.40;;
67804;SDS011;54603;45.638;11.714;2022-09-06T01:33:45;4.00;;;3.60;;
67804;SDS011;54603;45.638;11.714;2022-09-06T01:36:18;3.60;;;3.20;;
67804;SDS011;54603;45.638;11.714;2022-09-06T01:38:48;3.90;;;3.50;;
67804;SDS011;54603;45.638;11.714;2022-09-06T01:41:14;4.00;;;3.60;;
67804;SDS011;54603;45.638;11.714;2022-09-06T01:43:40;3.70;;;3.40;;
67804;SDS011;54603;45.638;11.714;2022-09-06T01:48:55;4.40;;;3.50;;
67804;SDS011;54603;45.638;11.714;2022-09-06T02:00:07;4.50;;;4.10;;
67804;SDS011;54603;45.638;11.714;2022-09-06T02:08:03;4.50;;;4.10;;
67804;SDS011;54603;45.638;11.714;2022-09-06T02:11:01;4.40;;;4.00;;
67804;SDS011;54603;45.638;11.714;2022-09-06T02:13:29;4.60;;;4.20;;
67804;SDS011;54603;45.638;11.714;2022-09-06T02:16:11;8.50;;;4.50;;
67804;SDS011;54603;45.638;11.714;2022-09-06T02:18:41;4.70;;;4.10;;
67804;SDS011;54603;45.638;11.714;2022-09-06T02:21:09;4.70;;;4.20;;
67804;SDS011;54603;45.638;11.714;2022-09-06T02:23:38;4.40;;;4.00;;
67804;SDS011;54603;45.638;11.714;2022-09-06T02:26:07;4.40;;;4.00;;
67804;SDS011;54603;45.638;11.714;2022-09-06T02:28:37;4.00;;;3.60;;
67804;SDS011;54603;45.638;11.714;2022-09-06T02:31:21;5.00;;;4.30;;
67804;SDS011;54603;45.638;11.714;2022-09-06T02:33:52;4.50;;;4.10;;
67804;SDS011;54603;45.638;11.714;2022-09-06T02:36:20;4.60;;;4.00;;
67804;SDS011;54603;45.638;11.714;2022-09-06T02:38:52;6.70;;;4.10;;
67804;SDS011;54603;45.638;11.714;2022-09-06T02:41:20;4.40;;;4.00;;
67804;SDS011;54603;45.638;11.714;2022-09-06T02:43:49;4.20;;;3.80;;
67804;SDS011;54603;45.638;11.714;2022-09-06T02:46:17;5.30;;;3.70;;
67804;SDS011;54603;45.638;11.714;2022-09-06T02:48:42;4.20;;;3.90;;
67804;SDS011;54603;45.638;11.714;2022-09-06T02:51:08;4.80;;;4.00;;
67804;SDS011;54603;45.638;11.714;2022-09-06T02:53:34;4.80;;;4.30;;
67804;SDS011;54603;45.638;11.714;2022-09-06T02:56:00;4.60;;;4.20;;
67804;SDS011;54603;45.638;11.714;2022-09-06T02:58:26;5.90;;;4.20;;
67804;SDS011;54603;45.638;11.714;2022-09-06T03:00:52;5.10;;;4.30;;
67804;SDS011;54603;45.638;11.714;2022-09-06T03:03:20;4.80;;;4.20;;
67804;SDS011;54603;45.638;11.714;2022-09-06T03:05:47;4.40;;;4.00;;
67804;SDS011;54603;45.638;11.714;2022-09-06T03:08:14;4.40;;;4.00;;
67804;SDS011;54603;45.638;11.714;2022-09-06T03:10:40;4.90;;;4.10;;
67804;SDS011;54603;45.638;11.714;2022-09-06T03:13:06;4.50;;;4.00;;
67804;SDS011;54603;45.638;11.714;2022-09-06T03:15:32;5.30;;;4.20;;
67804;SDS011;54603;45.638;11.714;2022-09-06T03:17:58;4.50;;;4.10;;
67804;SDS011;54603;45.638;11.714;2022-09-06T03:20:24;5.10;;;4.60;;
67804;SDS011;54603;45.638;11.714;2022-09-06T03:22:50;5.40;;;4.50;;
67804;SDS011;54603;45.638;11.714;2022-09-06T03:25:16;4.60;;;4.20;;
67804;SDS011;54603;45.638;11.714;2022-09-06T03:27:42;5.10;;;4.00;;
67804;SDS011;54603;45.638;11.714;2022-09-06T03:30:08;5.20;;;4.40;;
67804;SDS011;54603;45.638;11.714;2022-09-06T03:32:34;4.70;;;4.30;;
67804;SDS011;54603;45.638;11.714;2022-09-06T03:35:00;4.50;;;4.10;;
67804;SDS011;54603;45.638;11.714;2022-09-06T03:37:26;6.00;;;3.70;;
67804;SDS011;54603;45.638;11.714;2022-09-06T03:39:52;4.90;;;4.20;;
67804;SDS011;54603;45.638;11.714;2022-09-06T03:42:17;4.50;;;4.10;;
67804;SDS011;54603;45.638;11.714;2022-09-06T03:44:43;4.40;;;4.00;;
67804;SDS011;54603;45.638;11.714;2022-09-06T03:47:09;6.50;;;3.90;;
67804;SDS011;54603;45.638;11.714;2022-09-06T03:49:34;4.30;;;3.90;;
67804;SDS011;54603;45.638;11.714;2022-09-06T03:52:00;6.90;;;4.10;;
67804;SDS011;54603;45.638;11.714;2022-09-06T03:54:26;5.00;;;4.50;;
67804;SDS011;54603;45.638;11.714;2022-09-06T03:56:53;5.10;;;4.70;;
67804;SDS011;54603;45.638;11.714;2022-09-06T03:59:19;5.80;;;4.40;;
67804;SDS011;54603;45.638;11.714;2022-09-06T04:01:44;4.80;;;4.40;;
67804;SDS011;54603;45.638;11.714;2022-09-06T04:04:10;4.80;;;4.30;;
67804;SDS011;54603;45.638;11.714;2022-09-06T04:06:36;5.90;;;4.40;;
67804;SDS011;54603;45.638;11.714;2022-09-06T04:09:01;4.10;;;3.80;;
67804;SDS011;54603;45.638;11.714;2022-09-06T04:11:27;4.20;;;3.90;;
67804;SDS011;54603;45.638;11.714;2022-09-06T04:13:53;4.70;;;4.10;;
67804;SDS011;54603;45.638;11.714;2022-09-06T04:16:18;5.30;;;4.20;;
67804;SDS011;54603;45.638;11.714;2022-09-06T04:18:44;4.80;;;4.30;;
67804;SDS011;54603;45.638;11.714;2022-09-06T04:21:09;5.80;;;3.70;;
67804;SDS011;54603;45.638;11.714;2022-09-06T04:23:35;4.20;;;3.80;;
67804;SDS011;54603;45.638;11.714;2022-09-06T04:26:01;5.40;;;3.90;;
67804;SDS011;54603;45.638;11.714;2022-09-06T04:28:26;4.00;;;3.70;;
67804;SDS011;54603;45.638;11.714;2022-09-06T04:30:53;9.70;;;4.30;;
67804;SDS011;54603;45.638;11.714;2022-09-06T04:33:21;4.80;;;4.30;;
67804;SDS011;54603;45.638;11.714;2022-09-06T04:35:53;4.90;;;4.10;;
67804;SDS011;54603;45.638;11.714;2022-09-06T04:38:21;4.30;;;4.00;;
67804;SDS011;54603;45.638;11.714;2022-09-06T04:40:47;4.30;;;4.00;;
67804;SDS011;54603;45.638;11.714;2022-09-06T04:43:12;4.30;;;3.90;;
67804;SDS011;54603;45.638;11.714;2022-09-06T04:45:38;6.00;;;4.50;;
67804;SDS011;54603;45.638;11.714;2022-09-06T04:48:04;4.10;;;3.80;;
67804;SDS011;54603;45.638;11.714;2022-09-06T04:50:29;4.60;;;4.20;;
67804;SDS011;54603;45.638;11.714;2022-09-06T04:52:55;7.90;;;5.00;;
67804;SDS011;54603;45.638;11.714;2022-09-06T04:55:20;7.30;;;4.00;;
67804;SDS011;54603;45.638;11.714;2022-09-06T04:57:46;4.30;;;4.00;;
67804;SDS011;54603;45.638;11.714;2022-09-06T05:00:12;4.40;;;4.00;;
67804;SDS011;54603;45.638;11.714;2022-09-06T05:02:38;5.30;;;4.60;;
67804;SDS011;54603;45.638;11.714;2022-09-06T05:05:03;4.60;;;4.20;;
67804;SDS011;54603;45.638;11.714;2022-09-06T05:07:29;5.00;;;4.60;;
67804;SDS011;54603;45.638;11.714;2022-09-06T05:09:55;4.30;;;3.90;;
67804;SDS011;54603;45.638;11.714;2022-09-06T05:12:20;5.10;;;4.60;;
67804;SDS011;54603;45.638;11.714;2022-09-06T05:14:46;4.90;;;4.30;;
67804;SDS011;54603;45.638;11.714;2022-09-06T05:17:11;4.90;;;4.50;;
67804;SDS011;54603;45.638;11.714;2022-09-06T05:19:39;5.20;;;4.70;;
67804;SDS011;54603;45.638;11.714;2022-09-06T05:22:05;4.70;;;4.30;;
67804;SDS011;54603;45.638;11.714;2022-09-06T05:24:31;5.10;;;4.50;;
67804;SDS011;54603;45.638;11.714;2022-09-06T05:26:56;5.80;;;4.30;;
67804;SDS011;54603;45.638;11.714;2022-09-06T05:29:27;5.60;;;4.30;;
67804;SDS011;54603;45.638;11.714;2022-09-06T05:31:53;5.00;;;4.50;;
67804;SDS011;54603;45.638;11.714;2022-09-06T05:34:19;5.70;;;4.20;;
67804;SDS011;54603;45.638;11.714;2022-09-06T05:36:44;5.50;;;4.70;;
67804;SDS011;54603;45.638;11.714;2022-09-06T05:39:10;5.30;;;4.60;;
67804;SDS011;54603;45.638;11.714;2022-09-06T05:41:36;5.20;;;4.50;;
67804;SDS011;54603;45.638;11.714;2022-09-06T05:44:06;6.70;;;4.80;;
67804;SDS011;54603;45.638;11.714;2022-09-06T05:46:32;4.90;;;4.40;;
67804;SDS011;54603;45.638;11.714;2022-09-06T05:49:01;6.20;;;4.50;;
67804;SDS011;54603;45.638;11.714;2022-09-06T05:51:32;4.80;;;4.40;;
67804;SDS011;54603;45.638;11.714;2022-09-06T05:53:58;6.90;;;4.40;;
67804;SDS011;54603;45.638;11.714;2022-09-06T05:56:23;4.60;;;4.20;;
67804;SDS011;54603;45.638;11.714;2022-09-06T05:58:49;4.30;;;3.80;;
67804;SDS011;54603;45.638;11.714;2022-09-06T06:01:21;5.10;;;4.10;;
67804;SDS011;54603;45.638;11.714;2022-09-06T06:03:50;4.30;;;3.90;;
67804;SDS011;54603;45.638;11.714;2022-09-06T06:06:18;4.10;;;3.70;;
67804;SDS011;54603;45.638;11.714;2022-09-06T06:08:48;4.50;;;4.10;;
67804;SDS011;54603;45.638;11.714;2022-09-06T06:11:24;5.10;;;4.20;;
67804;SDS011;54603;45.638;11.714;2022-09-06T06:13:52;5.00;;;4.50;;
67804;SDS011;54603;45.638;11.714;2022-09-06T06:16:18;5.10;;;4.20;;
67804;SDS011;54603;45.638;11.714;2022-09-06T06:18:46;5.80;;;4.80;;
67804;SDS011;54603;45.638;11.714;2022-09-06T06:21:13;4.70;;;4.30;;
67804;SDS011;54603;45.638;11.714;2022-09-06T06:23:43;4.60;;;4.10;;
67804;SDS011;54603;45.638;11.714;2022-09-06T06:26:11;5.00;;;4.40;;
67804;SDS011;54603;45.638;11.714;2022-09-06T06:28:38;5.70;;;4.30;;
67804;SDS011;54603;45.638;11.714;2022-09-06T06:31:08;7.30;;;3.90;;
67804;SDS011;54603;45.638;11.714;2022-09-06T06:33:38;5.00;;;4.60;;
67804;SDS011;54603;45.638;11.714;2022-09-06T06:38:42;4.00;;;3.70;;
67804;SDS011;54603;45.638;11.714;2022-09-06T06:41:13;3.70;;;3.40;;
67804;SDS011;54603;45.638;11.714;2022-09-06T06:43:40;3.70;;;3.40;;
67804;SDS011;54603;45.638;11.714;2022-09-06T06:46:09;3.90;;;3.60;;
67804;SDS011;54603;45.638;11.714;2022-09-06T06:48:44;5.50;;;3.50;;
67804;SDS011;54603;45.638;11.714;2022-09-06T06:51:24;5.30;;;3.60;;
67804;SDS011;54603;45.638;11.714;2022-09-06T06:53:53;3.90;;;3.60;;
67804;SDS011;54603;45.638;11.714;2022-09-06T06:56:21;4.50;;;3.60;;
67804;SDS011;54603;45.638;11.714;2022-09-06T06:58:50;4.60;;;3.50;;
67804;SDS011;54603;45.638;11.714;2022-09-06T07:01:18;6.50;;;3.60;;
67804;SDS011;54603;45.638;11.714;2022-09-06T07:03:45;3.40;;;3.10;;
67804;SDS011;54603;45.638;11.714;2022-09-06T07:06:11;4.20;;;3.60;;
67804;SDS011;54603;45.638;11.714;2022-09-06T07:08:37;3.60;;;3.30;;
67804;SDS011;54603;45.638;11.714;2022-09-06T07:11:07;4.50;;;3.40;;
67804;SDS011;54603;45.638;11.714;2022-09-06T07:13:34;3.70;;;3.40;;
67804;SDS011;54603;45.638;11.714;2022-09-06T07:16:13;4.10;;;3.60;;
67804;SDS011;54603;45.638;11.714;2022-09-06T07:18:40;4.60;;;3.80;;
67804;SDS011;54603;45.638;11.714;2022-09-06T07:21:17;3.70;;;3.40;;
67804;SDS011;54603;45.638;11.714;2022-09-06T07:23:44;4.70;;;3.20;;
67804;SDS011;54603;45.638;11.714;2022-09-06T07:26:13;4.10;;;3.40;;
67804;SDS011;54603;45.638;11.714;2022-09-06T07:28:39;4.40;;;3.10;;
67804;SDS011;54603;45.638;11.714;2022-09-06T07:31:05;3.60;;;3.30;;
67804;SDS011;54603;45.638;11.714;2022-09-06T07:33:33;3.40;;;3.10;;
67804;SDS011;54603;45.638;11.714;2022-09-06T07:35:59;3.70;;;3.40;;
67804;SDS011;54603;45.638;11.714;2022-09-06T07:38:27;5.90;;;3.50;;
67804;SDS011;54603;45.638;11.714;2022-09-06T07:40:57;4.70;;;3.50;;
67804;SDS011;54603;45.638;11.714;2022-09-06T07:43:25;4.20;;;3.20;;
67804;SDS011;54603;45.638;11.714;2022-09-06T07:46:01;7.60;;;3.40;;
67804;SDS011;54603;45.638;11.714;2022-09-06T07:48:32;5.20;;;3.30;;
67804;SDS011;54603;45.638;11.714;2022-09-06T07:51:04;3.30;;;3.10;;
67804;SDS011;54603;45.638;11.714;2022-09-06T07:53:30;3.50;;;3.20;;
67804;SDS011;54603;45.638;11.714;2022-09-06T07:55:57;4.20;;;3.10;;
67804;SDS011;54603;45.638;11.714;2022-09-06T07:58:37;5.60;;;3.30;;
67804;SDS011;54603;45.638;11.714;2022-09-06T08:04:02;4.50;;;3.00;;
67804;SDS011;54603;45.638;11.714;2022-09-06T08:06:35;4.50;;;3.20;;
67804;SDS011;54603;45.638;11.714;2022-09-06T08:09:03;3.90;;;3.50;;
67804;SDS011;54603;45.638;11.714;2022-09-06T08:11:31;3.60;;;3.30;;
67804;SDS011;54603;45.638;11.714;2022-09-06T08:13:58;5.60;;;3.20;;
67804;SDS011;54603;45.638;11.714;2022-09-06T08:16:25;3.20;;;2.90;;
67804;SDS011;54603;45.638;11.714;2022-09-06T08:18:53;5.30;;;3.30;;
67804;SDS011;54603;45.638;11.714;2022-09-06T08:21:21;3.70;;;2.90;;
67804;SDS011;54603;45.638;11.714;2022-09-06T08:23:51;8.20;;;3.10;;
67804;SDS011;54603;45.638;11.714;2022-09-06T08:26:23;5.20;;;3.20;;
67804;SDS011;54603;45.638;11.714;2022-09-06T08:28:56;5.80;;;3.30;;
67804;SDS011;54603;45.638;11.714;2022-09-06T08:31:24;5.30;;;3.20;;
67804;SDS011;54603;45.638;11.714;2022-09-06T08:33:50;4.30;;;3.30;;
67804;SDS011;54603;45.638;11.714;2022-09-06T08:36:17;3.90;;;3.40;;
67804;SDS011;54603;45.638;11.714;2022-09-06T08:38:44;3.90;;;3.20;;
67804;SDS011;54603;45.638;11.714;2022-09-06T08:43:51;6.60;;;4.20;;
67804;SDS011;54603;45.638;11.714;2022-09-06T08:46:36;3.70;;;3.40;;
67804;SDS011;54603;45.638;11.714;2022-09-06T08:49:12;5.30;;;3.10;;
67804;SDS011;54603;45.638;11.714;2022-09-06T08:51:45;5.40;;;3.30;;
67804;SDS011;54603;45.638;11.714;2022-09-06T08:54:17;5.20;;;3.30;;
67804;SDS011;54603;45.638;11.714;2022-09-06T08:57:00;3.60;;;3.20;;
67804;SDS011;54603;45.638;11.714;2022-09-06T08:59:32;3.60;;;3.20;;
67804;SDS011;54603;45.638;11.714;2022-09-06T09:02:06;5.50;;;3.40;;
67804;SDS011;54603;45.638;11.714;2022-09-06T09:04:34;4.10;;;3.20;;
67804;SDS011;54603;45.638;11.714;2022-09-06T09:09:58;3.80;;;3.30;;
67804;SDS011;54603;45.638;11.714;2022-09-06T09:12:27;6.50;;;3.90;;
67804;SDS011;54603;45.638;11.714;2022-09-06T09:14:58;3.70;;;3.30;;
67804;SDS011;54603;45.638;11.714;2022-09-06T09:17:28;5.60;;;3.40;;
67804;SDS011;54603;45.638;11.714;2022-09-06T09:19:56;4.40;;;3.60;;
67804;SDS011;54603;45.638;11.714;2022-09-06T09:22:25;5.10;;;3.20;;
67804;SDS011;54603;45.638;11.714;2022-09-06T09:24:51;3.60;;;3.30;;
67804;SDS011;54603;45.638;11.714;2022-09-06T09:27:20;5.10;;;3.20;;
67804;SDS011;54603;45.638;11.714;2022-09-06T09:37:46;5.90;;;3.20;;
67804;SDS011;54603;45.638;11.714;2022-09-06T09:40:17;4.40;;;3.50;;
67804;SDS011;54603;45.638;11.714;2022-09-06T09:42:53;3.90;;;3.10;;
67804;SDS011;54603;45.638;11.714;2022-09-06T09:45:23;5.60;;;3.40;;
67804;SDS011;54603;45.638;11.714;2022-09-06T09:47:54;4.90;;;3.30;;
67804;SDS011;54603;45.638;11.714;2022-09-06T09:50:27;3.50;;;3.20;;
67804;SDS011;54603;45.638;11.714;2022-09-06T09:52:55;3.70;;;3.30;;
67804;SDS011;54603;45.638;11.714;2022-09-06T09:55:32;4.60;;;3.60;;
67804;SDS011;54603;45.638;11.714;2022-09-06T09:57:57;4.40;;;3.70;;
67804;SDS011;54603;45.638;11.714;2022-09-06T10:00:36;4.50;;;3.40;;
67804;SDS011;54603;45.638;11.714;2022-09-06T10:03:11;3.80;;;3.40;;
67804;SDS011;54603;45.638;11.714;2022-09-06T10:05:38;3.60;;;3.30;;
67804;SDS011;54603;45.638;11.714;2022-09-06T10:08:04;3.80;;;3.40;;
67804;SDS011;54603;45.638;11.714;2022-09-06T10:13:23;4.40;;;3.60;;
67804;SDS011;54603;45.638;11.714;2022-09-06T10:15:53;4.30;;;3.60;;
67804;SDS011;54603;45.638;11.714;2022-09-06T10:18:37;4.70;;;3.70;;
67804;SDS011;54603;45.638;11.714;2022-09-06T10:21:05;4.60;;;4.30;;
67804;SDS011;54603;45.638;11.714;2022-09-06T10:28:52;9.10;;;8.30;;
67804;SDS011;54603;45.638;11.714;2022-09-06T10:34:16;9.20;;;8.40;;
67804;SDS011;54603;45.638;11.714;2022-09-06T10:36:54;9.90;;;7.70;;
67804;SDS011;54603;45.638;11.714;2022-09-06T10:48:30;7.00;;;6.40;;
67804;SDS011;54603;45.638;11.714;2022-09-06T10:53:09;5.90;;;5.20;;
67804;SDS011;54603;45.638;11.714;2022-09-06T10:55:41;8.50;;;5.50;;
67804;SDS011;54603;45.638;11.714;2022-09-06T10:58:08;6.30;;;5.70;;
67804;SDS011;54603;45.638;11.714;2022-09-06T11:00:36;6.50;;;5.40;;
67804;SDS011;54603;45.638;11.714;2022-09-06T11:05:47;5.70;;;5.00;;
67804;SDS011;54603;45.638;11.714;2022-09-06T11:08:20;5.10;;;4.60;;
67804;SDS011;54603;45.638;11.714;2022-09-06T11:10:46;5.80;;;4.60;;
67804;SDS011;54603;45.638;11.714;2022-09-06T11:13:21;5.40;;;4.90;;
67804;SDS011;54603;45.638;11.714;2022-09-06T11:15:54;5.20;;;4.30;;
67804;SDS011;54603;45.638;11.714;2022-09-06T11:24:19;6.20;;;4.30;;
67804;SDS011;54603;45.638;11.714;2022-09-06T11:27:12;5.30;;;4.20;;
67804;SDS011;54603;45.638;11.714;2022-09-06T11:29:52;6.30;;;3.90;;
67804;SDS011;54603;45.638;11.714;2022-09-06T11:35:09;4.30;;;3.90;;
67804;SDS011;54603;45.638;11.714;2022-09-06T11:37:48;9.40;;;4.30;;
67804;SDS011;54603;45.638;11.714;2022-09-06T11:40:24;11.20;;;3.90;;
67804;SDS011;54603;45.638;11.714;2022-09-06T11:51:08;4.10;;;3.80;;
67804;SDS011;54603;45.638;11.714;2022-09-06T11:56:30;4.30;;;3.80;;
67804;SDS011;54603;45.638;11.714;2022-09-06T11:59:01;4.20;;;3.80;;
67804;SDS011;54603;45.638;11.714;2022-09-06T12:01:32;5.90;;;3.90;;
67804;SDS011;54603;45.638;11.714;2022-09-06T12:03:59;4.00;;;3.70;;
67804;SDS011;54603;45.638;11.714;2022-09-06T12:06:29;6.50;;;3.90;;
67804;SDS011;54603;45.638;11.714;2022-09-06T12:09:02;5.00;;;3.90;;
67804;SDS011;54603;45.638;11.714;2022-09-06T12:11:51;4.90;;;3.60;;
67804;SDS011;54603;45.638;11.714;2022-09-06T12:24:53;5.90;;;4.00;;
67804;SDS011;54603;45.638;11.714;2022-09-06T12:27:24;6.80;;;4.40;;
67804;SDS011;54603;45.638;11.714;2022-09-06T12:32:24;9.60;;;4.50;;
67804;SDS011;54603;45.638;11.714;2022-09-06T12:35:01;5.30;;;3.80;;
67804;SDS011;54603;45.638;11.714;2022-09-06T12:37:36;7.40;;;4.20;;
67804;SDS011;54603;45.638;11.714;2022-09-06T12:40:23;6.20;;;3.90;;
67804;SDS011;54603;45.638;11.714;2022-09-06T12:43:01;5.50;;;4.10;;
67804;SDS011;54603;45.638;11.714;2022-09-06T12:45:28;6.00;;;4.20;;
67804;SDS011;54603;45.638;11.714;2022-09-06T12:48:23;6.30;;;4.20;;
67804;SDS011;54603;45.638;11.714;2022-09-06T12:51:01;8.00;;;4.70;;
67804;SDS011;54603;45.638;11.714;2022-09-06T12:53:31;6.00;;;4.20;;
67804;SDS011;54603;45.638;11.714;2022-09-06T12:56:09;5.90;;;4.10;;
67804;SDS011;54603;45.638;11.714;2022-09-06T12:58:39;5.80;;;4.30;;
67804;SDS011;54603;45.638;11.714;2022-09-06T13:01:09;6.50;;;4.50;;
67804;SDS011;54603;45.638;11.714;2022-09-06T13:03:44;6.00;;;3.80;;
67804;SDS011;54603;45.638;11.714;2022-09-06T13:06:19;4.80;;;4.10;;
67804;SDS011;54603;45.638;11.714;2022-09-06T13:08:47;6.50;;;4.20;;
67804;SDS011;54603;45.638;11.714;2022-09-06T13:11:17;5.90;;;4.20;;
67804;SDS011;54603;45.638;11.714;2022-09-06T13:13:52;7.70;;;4.20;;
67804;SDS011;54603;45.638;11.714;2022-09-06T13:16:19;5.00;;;4.20;;
67804;SDS011;54603;45.638;11.714;2022-09-06T13:18:47;5.80;;;4.20;;
67804;SDS011;54603;45.638;11.714;2022-09-06T13:21:25;4.90;;;4.10;;
67804;SDS011;54603;45.638;11.714;2022-09-06T13:23:59;5.90;;;4.20;;
67804;SDS011;54603;45.638;11.714;2022-09-06T13:26:32;7.40;;;4.30;;
67804;SDS011;54603;45.638;11.714;2022-09-06T13:31:49;4.40;;;3.50;;
67804;SDS011;54603;45.638;11.714;2022-09-06T13:34:22;5.50;;;4.40;;
67804;SDS011;54603;45.638;11.714;2022-09-06T13:36:53;6.20;;;4.20;;
67804;SDS011;54603;45.638;11.714;2022-09-06T13:42:03;4.60;;;3.60;;
67804;SDS011;54603;45.638;11.714;2022-09-06T13:44:34;5.50;;;4.10;;
67804;SDS011;54603;45.638;11.714;2022-09-06T13:47:01;8.60;;;4.10;;
67804;SDS011;54603;45.638;11.714;2022-09-06T13:49:27;4.30;;;3.70;;
67804;SDS011;54603;45.638;11.714;2022-09-06T13:51:54;7.30;;;3.90;;
67804;SDS011;54603;45.638;11.714;2022-09-06T13:54:23;4.50;;;3.90;;
67804;SDS011;54603;45.638;11.714;2022-09-06T13:56:49;7.70;;;3.90;;
67804;SDS011;54603;45.638;11.714;2022-09-06T13:59:15;4.40;;;3.70;;
67804;SDS011;54603;45.638;11.714;2022-09-06T14:01:42;5.20;;;4.20;;
67804;SDS011;54603;45.638;11.714;2022-09-06T14:04:10;6.40;;;4.50;;
67804;SDS011;54603;45.638;11.714;2022-09-06T14:06:38;7.40;;;3.90;;
67804;SDS011;54603;45.638;11.714;2022-09-06T14:09:04;4.20;;;3.70;;
67804;SDS011;54603;45.638;11.714;2022-09-06T14:11:30;5.70;;;3.90;;
67804;SDS011;54603;45.638;11.714;2022-09-06T14:13:56;5.60;;;3.40;;
67804;SDS011;54603;45.638;11.714;2022-09-06T14:16:21;7.60;;;3.60;;
67804;SDS011;54603;45.638;11.714;2022-09-06T14:18:51;5.30;;;3.60;;
67804;SDS011;54603;45.638;11.714;2022-09-06T14:21:23;7.40;;;3.60;;
67804;SDS011;54603;45.638;11.714;2022-09-06T14:23:50;4.70;;;3.60;;
67804;SDS011;54603;45.638;11.714;2022-09-06T14:26:19;7.20;;;3.90;;
67804;SDS011;54603;45.638;11.714;2022-09-06T14:28:48;4.50;;;3.70;;
67804;SDS011;54603;45.638;11.714;2022-09-06T14:31:15;4.10;;;3.60;;
67804;SDS011;54603;45.638;11.714;2022-09-06T14:33:45;4.90;;;3.60;;
67804;SDS011;54603;45.638;11.714;2022-09-06T14:36:12;5.30;;;4.00;;
67804;SDS011;54603;45.638;11.714;2022-09-06T14:38:40;5.30;;;3.60;;
67804;SDS011;54603;45.638;11.714;2022-09-06T14:41:06;3.80;;;3.50;;
67804;SDS011;54603;45.638;11.714;2022-09-06T14:43:33;4.10;;;3.70;;
67804;SDS011;54603;45.638;11.714;2022-09-06T14:46:03;5.30;;;3.60;;
67804;SDS011;54603;45.638;11.714;2022-09-06T14:48:32;5.40;;;3.80;;
67804;SDS011;54603;45.638;11.714;2022-09-06T14:51:05;4.00;;;3.50;;
67804;SDS011;54603;45.638;11.714;2022-09-06T14:53:40;4.30;;;3.60;;
67804;SDS011;54603;45.638;11.714;2022-09-06T14:56:25;5.20;;;3.60;;
67804;SDS011;54603;45.638;11.714;2022-09-06T14:58:51;4.30;;;3.50;;
67804;SDS011;54603;45.638;11.714;2022-09-06T15:01:19;4.90;;;3.90;;
67804;SDS011;54603;45.638;11.714;2022-09-06T15:03:48;4.10;;;3.70;;
67804;SDS011;54603;45.638;11.714;2022-09-06T15:06:16;5.40;;;3.50;;
67804;SDS011;54603;45.638;11.714;2022-09-06T15:08:43;5.10;;;3.80;;
67804;SDS011;54603;45.638;11.714;2022-09-06T15:11:09;6.40;;;3.40;;
67804;SDS011;54603;45.638;11.714;2022-09-06T15:13:36;6.40;;;3.30;;
67804;SDS011;54603;45.638;11.714;2022-09-06T15:16:03;5.20;;;3.20;;
67804;SDS011;54603;45.638;11.714;2022-09-06T15:18:31;4.60;;;3.80;;
67804;SDS011;54603;45.638;11.714;2022-09-06T15:20:57;4.70;;;3.20;;
67804;SDS011;54603;45.638;11.714;2022-09-06T15:23:25;4.00;;;3.50;;
67804;SDS011;54603;45.638;11.714;2022-09-06T15:25:51;4.00;;;3.40;;
67804;SDS011;54603;45.638;11.714;2022-09-06T15:28:18;4.10;;;3.20;;
67804;SDS011;54603;45.638;11.714;2022-09-06T15:30:44;5.00;;;3.80;;
67804;SDS011;54603;45.638;11.714;2022-09-06T15:33:11;3.40;;;3.10;;
67804;SDS011;54603;45.638;11.714;2022-09-06T15:35:39;3.60;;;3.30;;
67804;SDS011;54603;45.638;11.714;2022-09-06T15:38:08;4.70;;;3.30;;
67804;SDS011;54603;45.638;11.714;2022-09-06T15:40:34;5.20;;;3.60;;
67804;SDS011;54603;45.638;11.714;2022-09-06T15:43:00;8.20;;;3.70;;
67804;SDS011;54603;45.638;11.714;2022-09-06T15:45:27;4.90;;;3.40;;
67804;SDS011;54603;45.638;11.714;2022-09-06T15:47:54;3.70;;;3.40;;
67804;SDS011;54603;45.638;11.714;2022-09-06T15:50:20;5.30;;;3.50;;
67804;SDS011;54603;45.638;11.714;2022-09-06T15:52:49;3.80;;;3.40;;
67804;SDS011;54603;45.638;11.714;2022-09-06T15:55:14;6.50;;;3.60;;
67804;SDS011;54603;45.638;11.714;2022-09-06T15:57:58;4.60;;;3.50;;
67804;SDS011;54603;45.638;11.714;2022-09-06T16:00:24;4.70;;;3.60;;
67804;SDS011;54603;45.638;11.714;2022-09-06T16:02:50;4.80;;;3.00;;
67804;SDS011;54603;45.638;11.714;2022-09-06T16:05:16;4.00;;;3.30;;
67804;SDS011;54603;45.638;11.714;2022-09-06T16:07:41;4.90;;;3.30;;
67804;SDS011;54603;45.638;11.714;2022-09-06T16:10:09;4.40;;;3.40;;
67804;SDS011;54603;45.638;11.714;2022-09-06T16:12:38;5.20;;;3.50;;
67804;SDS011;54603;45.638;11.714;2022-09-06T16:15:04;3.90;;;3.40;;
67804;SDS011;54603;45.638;11.714;2022-09-06T16:17:30;5.00;;;3.30;;
67804;SDS011;54603;45.638;11.714;2022-09-06T16:19:56;4.30;;;3.10;;
67804;SDS011;54603;45.638;11.714;2022-09-06T16:22:25;3.60;;;3.20;;
67804;SDS011;54603;45.638;11.714;2022-09-06T16:24:51;3.40;;;3.10;;
67804;SDS011;54603;45.638;11.714;2022-09-06T16:27:17;3.60;;;3.30;;
67804;SDS011;54603;45.638;11.714;2022-09-06T16:29:43;4.50;;;3.20;;
67804;SDS011;54603;45.638;11.714;2022-09-06T16:32:09;4.00;;;3.10;;
67804;SDS011;54603;45.638;11.714;2022-09-06T16:34:38;4.80;;;3.30;;
67804;SDS011;54603;45.638;11.714;2022-09-06T16:37:04;3.90;;;3.00;;